Terminal Aerodrome Forecast
Issued by NWS

Current Version | Previous Version | Text Only | Print | Product List | Glossary On
Versions: 1 2 3 4 5 6 7 8 9 10 11 12 13 14
781
FTUS42 KFFC 101613 AAA
TAFRYY
TAF AMD
KRYY 101613Z 1016/1112 31012G22KT P6SM BKN035
     FM101900 29014G24KT P6SM SCT050
     FM110000 27010KT P6SM SCT100
     FM110600 27004KT P6SM SCT250=

USA.gov is the U.S. government's official web portal to all federal, state and local government web resources and services.